createdAt,value
2018-05-07T00:01:56.563Z,102078.31
2018-05-07T00:04:24.164Z,102080.00
2018-05-07T00:06:51.790Z,102080.14
2018-05-07T00:09:19.357Z,102080.28
2018-05-07T00:11:47.289Z,102083.76
2018-05-07T00:14:14.913Z,102083.19
2018-05-07T00:16:42.497Z,102077.47
2018-05-07T00:19:10.166Z,102075.13
2018-05-07T00:21:37.866Z,102073.66
2018-05-07T00:24:05.433Z,102074.52
2018-05-07T00:26:33.386Z,102078.09
2018-05-07T00:29:00.964Z,102076.86
2018-05-07T00:31:28.520Z,102068.64
2018-05-07T00:33:56.593Z,102070.15
2018-05-07T00:36:24.167Z,102074.32
2018-05-07T00:38:51.820Z,102074.80
2018-05-07T00:41:19.472Z,102065.99
2018-05-07T00:43:47.015Z,102073.31
2018-05-07T00:46:14.588Z,102069.85
2018-05-07T00:48:42.202Z,102070.39
2018-05-07T00:51:09.795Z,102070.05
2018-05-07T00:53:37.522Z,102072.38
2018-05-07T00:56:05.089Z,102068.27
2018-05-07T00:58:32.646Z,102073.74
2018-05-07T01:01:00.260Z,102065.27
2018-05-07T01:03:27.851Z,102074.22
2018-05-07T01:05:55.536Z,102066.08
2018-05-07T01:08:23.408Z,102073.08
2018-05-07T01:10:51.058Z,102072.63
2018-05-07T01:13:18.679Z,102069.33
2018-05-07T01:15:46.314Z,102066.11
2018-05-07T01:18:13.907Z,102071.94
2018-05-07T01:20:41.487Z,102075.97
2018-05-07T01:23:09.100Z,102075.47
2018-05-07T01:25:36.651Z,102083.61
2018-05-07T01:28:04.210Z,102075.94
2018-05-07T01:30:31.980Z,102078.55
2018-05-07T01:32:59.816Z,102076.44
2018-05-07T01:35:27.693Z,102071.86
2018-05-07T01:37:55.450Z,102074.25
2018-05-07T01:40:23.235Z,102078.98
2018-05-07T01:42:50.837Z,102078.16
2018-05-07T01:45:18.522Z,102075.89
2018-05-07T01:47:46.089Z,102069.91
2018-05-07T01:50:13.732Z,102076.17
2018-05-07T01:52:41.310Z,102073.14
2018-05-07T01:55:08.861Z,102073.92
2018-05-07T01:57:37.129Z,102078.81
2018-05-07T02:00:04.712Z,102074.05
2018-05-07T02:02:32.257Z,102075.16
2018-05-07T02:04:59.845Z,102070.06
2018-05-07T02:07:27.443Z,102066.43
2018-05-07T02:09:54.996Z,102063.34
2018-05-07T02:12:22.549Z,102063.56
2018-05-07T02:14:50.354Z,102065.81
2018-05-07T02:17:18.148Z,102068.19
2018-05-07T02:19:45.785Z,102064.40
2018-05-07T02:22:13.472Z,102076.34
2018-05-07T02:24:41.086Z,102076.50
2018-05-07T02:27:08.645Z,102079.00
2018-05-07T02:29:36.272Z,102072.45
2018-05-07T02:32:03.836Z,102074.60
2018-05-07T02:34:31.512Z,102079.33
2018-05-07T02:36:59.096Z,102074.92
2018-05-07T02:39:26.646Z,102072.97
2018-05-07T02:41:54.247Z,102070.55
2018-05-07T02:44:21.903Z,102074.45
2018-05-07T02:46:49.481Z,102068.14
2018-05-07T02:49:17.130Z,102071.72
2018-05-07T02:51:44.730Z,102071.55
2018-05-07T02:54:12.338Z,102077.28
2018-05-07T02:56:40.025Z,102064.89
2018-05-07T02:59:07.592Z,102070.73
2018-05-07T03:01:35.215Z,102071.98
2018-05-07T03:04:02.903Z,102071.08
2018-05-07T03:06:30.465Z,102072.49
2018-05-07T03:08:58.016Z,102075.02
2018-05-07T03:11:25.588Z,102071.92
2018-05-07T03:13:53.221Z,102074.31
2018-05-07T03:16:20.826Z,102074.63
2018-05-07T03:18:48.538Z,102079.41
2018-05-07T03:21:16.490Z,102075.11
2018-05-07T03:23:44.427Z,102071.48
2018-05-07T03:26:12.026Z,102074.09
2018-05-07T03:28:39.880Z,102071.11
2018-05-07T03:31:07.439Z,102067.30
2018-05-07T03:33:35.077Z,102071.64
2018-05-07T03:36:03.196Z,102072.27
2018-05-07T03:38:30.763Z,102064.90
2018-05-07T03:40:58.332Z,102062.52
2018-05-07T03:43:26.161Z,102062.05
2018-05-07T03:45:53.784Z,102063.98
2018-05-07T03:48:21.403Z,102060.87
2018-05-07T03:50:48.973Z,102060.84
2018-05-07T03:53:16.571Z,102055.75
2018-05-07T03:55:44.131Z,102056.02
2018-05-07T03:58:11.692Z,102058.30
2018-05-07T04:00:39.295Z,102052.48
2018-05-07T04:03:06.859Z,102053.17
2018-05-07T04:05:35.440Z,102045.34
2018-05-07T04:08:03.276Z,102046.55
2018-05-07T04:10:30.836Z,102049.69
2018-05-07T04:12:58.416Z,102042.81
2018-05-07T04:15:26.038Z,102046.25
2018-05-07T04:18:05.421Z,102042.16
2018-05-07T04:20:44.950Z,102039.97
2018-05-07T04:23:24.296Z,102043.84
2018-05-07T04:25:52.228Z,102042.63
2018-05-07T04:28:19.799Z,102047.59
2018-05-07T04:30:47.598Z,102044.71
2018-05-07T04:33:15.227Z,102043.84
2018-05-07T04:35:43.024Z,102043.31
2018-05-07T04:38:10.579Z,102045.73
2018-05-07T04:40:38.166Z,102039.70
2018-05-07T04:43:05.858Z,102044.10
2018-05-07T04:45:33.427Z,102047.84
2018-05-07T04:48:00.996Z,102049.32
2018-05-07T04:50:28.681Z,102053.21
2018-05-07T04:52:56.251Z,102056.70
2018-05-07T04:55:23.854Z,102053.39
2018-05-07T04:57:51.843Z,102048.42
2018-05-07T05:00:19.487Z,102044.97
2018-05-07T05:02:47.073Z,102042.30
2018-05-07T05:05:14.727Z,102047.86
2018-05-07T05:07:42.309Z,102044.69
2018-05-07T05:10:09.903Z,102045.08
2018-05-07T05:12:37.696Z,102040.99
2018-05-07T05:15:05.296Z,102039.22
2018-05-07T05:17:32.984Z,102033.20
2018-05-07T05:20:00.895Z,102039.72
2018-05-07T05:22:28.506Z,102034.58
2018-05-07T05:24:56.146Z,102027.98
2018-05-07T05:27:23.870Z,102028.23
2018-05-07T05:29:51.451Z,102031.45
2018-05-07T05:32:19.018Z,102032.22
2018-05-07T05:34:47.909Z,102038.66
2018-05-07T05:37:15.661Z,102031.34
2018-05-07T05:39:43.348Z,102035.23
2018-05-07T05:42:11.015Z,102030.48
2018-05-07T05:44:38.642Z,102027.25
2018-05-07T05:47:06.204Z,102025.08
2018-05-07T05:49:33.857Z,102019.96
2018-05-07T05:52:01.483Z,102021.30
2018-05-07T05:54:29.061Z,102017.59
2018-05-07T05:56:56.629Z,102018.95
2018-05-07T05:59:24.236Z,102019.58
2018-05-07T06:01:51.879Z,102022.42
2018-05-07T06:04:19.715Z,102023.70
2018-05-07T06:06:47.356Z,102028.48
2018-05-07T06:09:14.964Z,102023.59
2018-05-07T06:11:43.001Z,102027.00
2018-05-07T06:14:10.652Z,102016.66
2018-05-07T06:16:38.218Z,102020.20
2018-05-07T06:19:06.226Z,102018.36
2018-05-07T06:21:33.800Z,102024.66
2018-05-07T06:24:01.660Z,102022.81
2018-05-07T06:26:29.268Z,102023.33
2018-05-07T06:28:56.922Z,102023.58
2018-05-07T06:31:24.590Z,102024.99
2018-05-07T06:33:52.419Z,102022.98
2018-05-07T06:36:20.270Z,102032.28
2018-05-07T06:38:47.883Z,102023.70
2018-05-07T06:41:15.527Z,102024.92
2018-05-07T06:43:43.239Z,102026.80
2018-05-07T06:46:10.800Z,102030.63
2018-05-07T06:48:38.625Z,102022.30
2018-05-07T06:51:06.216Z,102029.36
2018-05-07T06:53:33.776Z,102026.88
2018-05-07T06:56:01.455Z,102025.38
2018-05-07T06:58:29.045Z,102027.50
2018-05-07T07:00:56.687Z,102028.83
2018-05-07T07:03:24.457Z,102028.22
2018-05-07T07:05:52.034Z,102026.22
2018-05-07T07:08:19.747Z,102028.66
2018-05-07T07:10:47.365Z,102016.09
2018-05-07T07:13:14.955Z,102025.57
2018-05-07T07:15:42.556Z,102014.59
2018-05-07T07:18:10.158Z,102016.95
2018-05-07T07:20:37.710Z,102012.94
2018-05-07T07:23:05.633Z,102009.11
2018-05-07T07:25:33.231Z,102002.12
2018-05-07T07:28:00.869Z,102005.16
2018-05-07T07:30:28.399Z,101998.27
2018-05-07T07:32:57.191Z,101992.19
2018-05-07T07:35:24.848Z,101998.95
2018-05-07T07:37:52.485Z,102003.84
2018-05-07T07:40:20.669Z,102004.02
2018-05-07T07:42:48.233Z,102007.05
2018-05-07T07:45:15.803Z,101998.28
2018-05-07T07:47:44.051Z,101995.05
2018-05-07T07:50:11.687Z,101996.19
2018-05-07T07:52:39.262Z,102000.77
2018-05-07T07:55:06.930Z,101991.65
2018-05-07T07:57:34.507Z,102001.14
2018-05-07T08:00:02.136Z,101998.94
2018-05-07T08:02:29.691Z,101993.41
2018-05-07T08:04:57.253Z,101997.78
2018-05-07T08:07:24.963Z,101999.09
2018-05-07T08:09:52.644Z,101995.91
2018-05-07T08:12:20.253Z,101993.48
2018-05-07T08:14:48.022Z,101982.93
2018-05-07T08:17:15.598Z,101990.58
2018-05-07T08:19:43.168Z,101994.27
2018-05-07T08:22:10.783Z,101985.16
2018-05-07T08:24:38.335Z,101983.87
2018-05-07T08:27:05.974Z,101989.58
2018-05-07T08:29:33.804Z,101990.73
2018-05-07T08:32:01.368Z,101982.15
2018-05-07T08:34:29.141Z,101981.59
2018-05-07T08:36:56.957Z,101980.39
2018-05-07T08:39:24.583Z,101978.89
2018-05-07T08:41:52.584Z,101978.70
2018-05-07T08:44:20.145Z,101972.45
2018-05-07T08:46:47.875Z,101971.87
2018-05-07T08:49:15.676Z,101971.21
2018-05-07T08:51:43.334Z,101973.23
2018-05-07T08:54:10.919Z,101970.20
2018-05-07T08:56:38.715Z,101973.16
2018-05-07T08:59:06.661Z,101968.25
2018-05-07T09:01:34.352Z,101961.13
2018-05-07T09:04:01.955Z,101968.89
2018-05-07T09:06:29.538Z,101960.09
2018-05-07T09:08:57.164Z,101969.64
2018-05-07T09:11:24.830Z,101959.22
2018-05-07T09:13:52.463Z,101961.66
2018-05-07T09:16:20.056Z,101959.27
2018-05-07T09:18:47.692Z,101955.81
2018-05-07T09:21:15.280Z,101956.38
2018-05-07T09:23:42.915Z,101956.00
2018-05-07T09:26:11.094Z,101953.54
2018-05-07T09:28:38.663Z,101945.87
2018-05-07T09:31:06.226Z,101943.13
2018-05-07T09:33:34.094Z,101943.84
2018-05-07T09:36:01.870Z,101941.68
2018-05-07T09:38:29.423Z,101941.14
2018-05-07T09:40:57.290Z,101947.41
2018-05-07T09:43:24.987Z,101935.45
2018-05-07T09:45:52.779Z,101937.66
2018-05-07T09:48:20.388Z,101935.64
2018-05-07T09:50:47.952Z,101936.31
2018-05-07T09:53:15.579Z,101925.23
2018-05-07T09:55:43.186Z,101930.59
2018-05-07T09:58:10.786Z,101921.13
2018-05-07T10:00:38.372Z,101920.12
2018-05-07T10:03:06.006Z,101916.17
2018-05-07T10:05:34.551Z,101915.34
2018-05-07T10:08:02.146Z,101911.00
2018-05-07T10:10:29.724Z,101913.83
2018-05-07T10:12:57.549Z,101898.60
2018-05-07T10:15:25.120Z,101904.24
2018-05-07T10:17:53.220Z,101897.87
2018-05-07T10:20:20.800Z,101896.89
2018-05-07T10:22:48.458Z,101887.95
2018-05-07T10:25:16.076Z,101886.75
2018-05-07T10:27:43.645Z,101892.14
2018-05-07T10:30:11.319Z,101883.19
2018-05-07T10:32:39.140Z,101891.35
2018-05-07T10:35:06.782Z,101889.75
2018-05-07T10:37:34.374Z,101887.00
2018-05-07T10:40:02.259Z,101885.20
2018-05-07T10:42:30.359Z,101886.16
2018-05-07T10:44:57.914Z,101882.77
2018-05-07T10:47:25.495Z,101880.96
2018-05-07T10:49:53.094Z,101884.86
2018-05-07T10:52:20.668Z,101874.47
2018-05-07T10:54:49.017Z,101879.84
2018-05-07T10:57:16.671Z,101869.55
2018-05-07T10:59:44.224Z,101875.75
2018-05-07T11:02:11.856Z,101880.92
2018-05-07T11:04:39.409Z,101873.89
2018-05-07T11:07:07.000Z,101863.66
2018-05-07T11:09:34.788Z,101873.42
2018-05-07T11:12:02.549Z,101861.88
2018-05-07T11:14:30.095Z,101864.52
2018-05-07T11:16:57.655Z,101858.03
2018-05-07T11:19:25.241Z,101856.70
2018-05-07T11:21:53.588Z,101854.97
2018-05-07T11:24:21.172Z,101849.43
2018-05-07T11:26:48.744Z,101856.91
2018-05-07T11:29:16.541Z,101850.58
2018-05-07T11:31:44.116Z,101849.66
2018-05-07T11:34:11.912Z,101847.32
2018-05-07T11:36:39.503Z,101852.43
2018-05-07T11:39:07.357Z,101851.09
2018-05-07T11:41:34.987Z,101845.66
2018-05-07T11:44:02.648Z,101843.11
2018-05-07T11:46:30.210Z,101840.90
2018-05-07T11:48:58.159Z,101832.52
2018-05-07T11:51:25.749Z,101839.21
2018-05-07T11:53:53.382Z,101831.53
2018-05-07T11:56:21.358Z,101829.41
2018-05-07T11:58:48.911Z,101835.20
2018-05-07T12:01:16.483Z,101837.32
2018-05-07T12:03:44.420Z,101834.44
2018-05-07T12:06:11.990Z,101820.33
2018-05-07T12:08:39.646Z,101819.78
2018-05-07T12:11:07.327Z,101819.71
2018-05-07T12:13:35.107Z,101826.16
2018-05-07T12:16:02.836Z,101816.29
2018-05-07T12:18:30.323Z,101821.02
2018-05-07T12:20:58.343Z,101810.06
2018-05-07T12:23:25.892Z,101801.45
2018-05-07T12:25:53.586Z,101800.52
2018-05-07T12:28:21.499Z,101798.86
2018-05-07T12:30:49.064Z,101793.85
2018-05-07T12:33:16.947Z,101798.01
2018-05-07T12:35:44.572Z,101787.13
2018-05-07T12:38:12.155Z,101798.06
2018-05-07T12:40:40.041Z,101783.59
2018-05-07T12:43:07.640Z,101788.30
2018-05-07T12:45:35.260Z,101788.48
2018-05-07T12:48:02.816Z,101784.98
2018-05-07T12:50:30.462Z,101771.42
2018-05-07T12:52:58.115Z,101768.25
2018-05-07T12:55:25.671Z,101776.19
2018-05-07T12:57:53.363Z,101761.27
2018-05-07T13:00:21.256Z,101760.77
2018-05-07T13:02:48.891Z,101764.48
2018-05-07T13:05:16.566Z,101757.89
2018-05-07T13:07:44.114Z,101748.57
2018-05-07T13:10:11.821Z,101747.44
2018-05-07T13:12:39.613Z,101748.38
2018-05-07T13:15:07.181Z,101745.15
2018-05-07T13:17:35.575Z,101736.11
2018-05-07T13:20:03.304Z,101734.23
2018-05-07T13:22:30.915Z,101732.46
2018-05-07T13:24:58.507Z,101734.09
2018-05-07T13:27:26.117Z,101721.09
2018-05-07T13:29:53.711Z,101725.99
2018-05-07T13:32:21.279Z,101727.72
2018-05-07T13:34:49.133Z,101720.83
2018-05-07T13:37:17.449Z,101710.31
2018-05-07T13:39:45.134Z,101709.39
2018-05-07T13:42:12.684Z,101717.75
2018-05-07T13:44:40.319Z,101712.22
2018-05-07T13:47:07.942Z,101710.42
2018-05-07T13:49:35.499Z,101702.56
2018-05-07T13:52:04.028Z,101700.79
2018-05-07T13:54:33.348Z,101700.05
2018-05-07T13:57:02.190Z,101693.59
2018-05-07T13:59:30.682Z,101695.40
2018-05-07T14:01:58.390Z,101691.42
2018-05-07T14:04:26.032Z,101689.27
2018-05-07T14:06:53.642Z,101684.56
2018-05-07T14:09:21.629Z,101688.08
2018-05-07T14:11:49.721Z,101672.70
2018-05-07T14:14:17.799Z,101669.61
2018-05-07T14:16:45.474Z,101665.65
2018-05-07T14:19:12.989Z,101675.20
2018-05-07T14:21:40.645Z,101672.16
2018-05-07T14:24:08.196Z,101668.05
2018-05-07T14:26:35.886Z,101666.66
2018-05-07T14:29:03.745Z,101666.09
2018-05-07T14:31:31.392Z,101665.58
2018-05-07T14:33:58.968Z,101658.81
2018-05-07T14:36:26.828Z,101655.19
2018-05-07T14:38:54.479Z,101658.03
2018-05-07T14:41:22.277Z,101654.10
2018-05-07T14:43:49.933Z,101650.86
2018-05-07T14:46:17.544Z,101640.88
2018-05-07T14:48:45.200Z,101646.76
2018-05-07T14:51:13.003Z,101647.56
2018-05-07T14:53:41.031Z,101643.06
2018-05-07T14:56:08.595Z,101640.25
2018-05-07T14:58:36.167Z,101641.05
2018-05-07T15:01:04.120Z,101637.23
2018-05-07T15:03:31.710Z,101635.45
2018-05-07T15:05:59.353Z,101627.38
2018-05-07T15:08:27.646Z,101627.06
2018-05-07T15:10:55.250Z,101622.41
2018-05-07T15:13:22.866Z,101621.47
2018-05-07T15:15:50.432Z,101623.44
2018-05-07T15:18:18.015Z,101618.67
2018-05-07T15:20:45.965Z,101616.68
2018-05-07T15:23:13.845Z,101611.02
2018-05-07T15:25:41.515Z,101617.74
2018-05-07T15:28:09.224Z,101616.80
2018-05-07T15:30:36.784Z,101607.33
2018-05-07T15:33:04.381Z,101614.19
2018-05-07T15:35:32.119Z,101610.58
2018-05-07T15:37:59.744Z,101612.02
2018-05-07T15:40:27.399Z,101610.59
2018-05-07T15:42:54.963Z,101609.28
2018-05-07T15:45:22.663Z,101607.03
2018-05-07T15:47:50.325Z,101610.53
2018-05-07T15:50:17.875Z,101609.69
2018-05-07T15:52:45.647Z,101604.43
2018-05-07T15:55:13.597Z,101609.33
2018-05-07T15:57:41.292Z,101595.78
2018-05-07T16:00:09.146Z,101597.70
2018-05-07T16:02:36.768Z,101598.20
2018-05-07T16:05:04.324Z,101591.50
2018-05-07T16:07:32.008Z,101593.80
2018-05-07T16:09:59.803Z,101595.78
2018-05-07T16:12:27.355Z,101586.44
2018-05-07T16:14:55.040Z,101586.12
2018-05-07T16:17:22.854Z,101582.53
2018-05-07T16:19:51.091Z,101581.83
2018-05-07T16:22:19.172Z,101582.53
2018-05-07T16:24:46.825Z,101580.08
2018-05-07T16:27:14.514Z,101574.18
2018-05-07T16:29:42.067Z,101571.27
2018-05-07T16:32:09.736Z,101572.41
2018-05-07T16:34:37.355Z,101570.00
2018-05-07T16:37:04.901Z,101565.25
2018-05-07T16:39:32.535Z,101570.48
2018-05-07T16:42:00.126Z,101570.28
2018-05-07T16:44:28.098Z,101565.31
2018-05-07T16:46:55.668Z,101554.11
2018-05-07T16:49:23.239Z,101556.18
2018-05-07T16:51:51.048Z,101562.94
2018-05-07T16:54:18.738Z,101558.81
2018-05-07T16:56:46.309Z,101560.70
2018-05-07T16:59:13.867Z,101548.41
2018-05-07T17:01:41.658Z,101552.03
2018-05-07T17:04:09.259Z,101552.44
2018-05-07T17:06:36.946Z,101546.48
2018-05-07T17:09:04.559Z,101547.12
2018-05-07T17:11:32.163Z,101542.76
2018-05-07T17:13:59.724Z,101537.78
2018-05-07T17:16:27.928Z,101542.19
2018-05-07T17:18:55.533Z,101532.94
2018-05-07T17:21:23.108Z,101538.84
2018-05-07T17:23:51.100Z,101532.69
2018-05-07T17:26:18.776Z,101533.27
2018-05-07T17:28:46.336Z,101534.14
2018-05-07T17:31:13.917Z,101535.95
2018-05-07T17:33:41.686Z,101536.98
2018-05-07T17:36:09.126Z,101535.08
2018-05-07T17:38:36.710Z,101539.46
2018-05-07T17:41:04.264Z,101537.09
2018-05-07T17:43:31.869Z,101537.67
2018-05-07T17:46:11.392Z,101542.66
2018-05-07T17:48:50.955Z,101538.31
2018-05-07T17:51:18.580Z,101537.95
2018-05-07T17:53:46.192Z,101543.53
2018-05-07T17:56:14.267Z,101545.14
2018-05-07T17:58:41.835Z,101543.13
2018-05-07T18:01:09.384Z,101539.94
2018-05-07T18:03:37.032Z,101533.78
2018-05-07T18:06:04.629Z,101534.58
2018-05-07T18:08:32.476Z,101547.09
2018-05-07T18:11:00.029Z,101538.52
2018-05-07T18:13:27.658Z,101530.16
2018-05-07T18:15:55.377Z,101532.75
2018-05-07T18:18:22.994Z,101536.06
2018-05-07T18:20:50.637Z,101534.84
2018-05-07T18:23:18.463Z,101536.02
2018-05-07T18:25:46.271Z,101536.98
2018-05-07T18:28:14.107Z,101532.80
2018-05-07T18:30:41.992Z,101529.58
2018-05-07T18:33:09.636Z,101528.69
2018-05-07T18:35:37.276Z,101525.06
2018-05-07T18:38:04.927Z,101531.38
2018-05-07T18:40:32.487Z,101520.99
2018-05-07T18:43:00.071Z,101527.09
2018-05-07T18:45:27.637Z,101526.23
2018-05-07T18:47:55.310Z,101528.51
2018-05-07T18:50:22.879Z,101530.36
2018-05-07T18:52:50.569Z,101536.42
2018-05-07T18:55:18.162Z,101537.56
2018-05-07T18:57:45.850Z,101534.70
2018-05-07T19:00:13.505Z,101537.42
2018-05-07T19:02:41.092Z,101535.39
2018-05-07T19:05:08.793Z,101539.11
2018-05-07T19:07:36.464Z,101536.63
2018-05-07T19:10:04.084Z,101534.16
2018-05-07T19:12:31.688Z,101536.27
2018-05-07T19:14:59.264Z,101540.98
2018-05-07T19:17:26.997Z,101539.66
2018-05-07T19:19:54.822Z,101539.81
2018-05-07T19:22:22.398Z,101538.55
2018-05-07T19:24:50.199Z,101544.58
2018-05-07T19:27:17.844Z,101541.74
2018-05-07T19:29:46.346Z,101546.98
2018-05-07T19:32:14.071Z,101544.59
2018-05-07T19:34:41.634Z,101545.46
2018-05-07T19:37:09.213Z,101541.42
2018-05-07T19:39:36.929Z,101541.30
2018-05-07T19:42:04.492Z,101539.73
2018-05-07T19:44:32.041Z,101538.02
2018-05-07T19:46:59.627Z,101535.53
2018-05-07T19:49:27.277Z,101535.94
2018-05-07T19:51:54.895Z,101538.35
2018-05-07T19:54:22.716Z,101533.47
2018-05-07T19:56:50.447Z,101528.41
2018-05-07T19:59:18.051Z,101529.62
2018-05-07T20:01:45.678Z,101527.56
2018-05-07T20:04:13.614Z,101531.23
2018-05-07T20:06:41.422Z,101529.59
2018-05-07T20:09:09.359Z,101531.83
2018-05-07T20:11:37.286Z,101532.09
2018-05-07T20:14:04.860Z,101532.54
2018-05-07T20:16:32.501Z,101534.70
2018-05-07T20:19:00.062Z,101536.16
2018-05-07T20:21:27.718Z,101533.53
2018-05-07T20:23:55.706Z,101533.59
2018-05-07T20:26:23.300Z,101535.95
2018-05-07T20:28:50.991Z,101531.65
2018-05-07T20:31:18.547Z,101529.95
2018-05-07T20:33:46.211Z,101531.25
2018-05-07T20:36:14.141Z,101533.00
2018-05-07T20:38:41.696Z,101532.49
2018-05-07T20:41:09.257Z,101530.20
2018-05-07T20:43:36.844Z,101529.57
2018-05-07T20:46:04.455Z,101528.66
2018-05-07T20:48:32.082Z,101529.95
2018-05-07T20:50:59.630Z,101534.22
2018-05-07T20:53:27.824Z,101529.35
2018-05-07T20:55:55.384Z,101531.05
2018-05-07T20:58:23.196Z,101534.08
2018-05-07T21:00:51.293Z,101531.96
2018-05-07T21:03:18.924Z,101529.30
2018-05-07T21:05:46.480Z,101531.40
2018-05-07T21:08:14.323Z,101523.03
2018-05-07T21:10:41.966Z,101525.73
2018-05-07T21:13:09.614Z,101521.69
2018-05-07T21:15:37.116Z,101516.45
2018-05-07T21:18:04.747Z,101517.03
2018-05-07T21:20:32.571Z,101520.87
2018-05-07T21:23:00.262Z,101514.61
2018-05-07T21:25:28.237Z,101516.77
2018-05-07T21:27:56.145Z,101511.87
2018-05-07T21:30:23.847Z,101517.59
2018-05-07T21:32:51.530Z,101522.58
2018-05-07T21:35:19.190Z,101515.67
2018-05-07T21:37:46.835Z,101517.89
2018-05-07T21:40:14.398Z,101516.59
2018-05-07T21:42:41.953Z,101513.00
2018-05-07T21:45:09.603Z,101516.97
2018-05-07T21:47:37.179Z,101519.95
2018-05-07T21:50:05.158Z,101518.02
2018-05-07T21:52:32.891Z,101518.67
2018-05-07T21:55:00.443Z,101519.69
2018-05-07T21:57:28.023Z,101510.44
2018-05-07T21:59:55.582Z,101516.86
2018-05-07T22:02:23.200Z,101514.36
2018-05-07T22:04:50.817Z,101516.56
2018-05-07T22:07:18.473Z,101511.69
2018-05-07T22:09:46.302Z,101515.27
2018-05-07T22:12:14.152Z,101508.98
2018-05-07T22:14:41.727Z,101511.37
2018-05-07T22:17:09.316Z,101511.37
2018-05-07T22:19:36.884Z,101505.91
2018-05-07T22:22:04.487Z,101503.57
2018-05-07T22:24:32.142Z,101505.53
2018-05-07T22:26:59.725Z,101496.15
2018-05-07T22:29:27.346Z,101497.70
2018-05-07T22:31:55.180Z,101496.38
2018-05-07T22:34:22.799Z,101491.61
2018-05-07T22:36:50.537Z,101488.71
2018-05-07T22:39:18.160Z,101491.34
2018-05-07T22:41:45.748Z,101487.86
2018-05-07T22:44:13.393Z,101488.66
2018-05-07T22:46:41.050Z,101493.86
2018-05-07T22:49:08.929Z,101486.88
2018-05-07T22:51:36.538Z,101491.69
2018-05-07T22:54:04.113Z,101492.03
2018-05-07T22:56:31.987Z,101487.41
2018-05-07T22:58:59.538Z,101488.02
2018-05-07T23:01:27.563Z,101485.11
2018-05-07T23:03:55.211Z,101488.66
2018-05-07T23:06:22.772Z,101495.92
2018-05-07T23:08:50.374Z,101496.25
2018-05-07T23:11:18.001Z,101490.12
2018-05-07T23:13:45.581Z,101482.27
2018-05-07T23:16:13.196Z,101488.22
2018-05-07T23:18:40.785Z,101483.02
2018-05-07T23:21:08.343Z,101487.54
2018-05-07T23:23:35.924Z,101482.33
2018-05-07T23:26:03.710Z,101483.47
2018-05-07T23:28:31.329Z,101485.18
2018-05-07T23:30:59.021Z,101479.97
2018-05-07T23:33:26.680Z,101482.37
2018-05-07T23:35:54.315Z,101480.34
2018-05-07T23:38:21.898Z,101481.94
2018-05-07T23:40:49.453Z,101477.55
2018-05-07T23:43:17.052Z,101479.57
2018-05-07T23:45:44.640Z,101467.74
2018-05-07T23:48:12.295Z,101468.88
2018-05-07T23:50:39.891Z,101464.55
2018-05-07T23:53:07.448Z,101464.08
2018-05-07T23:55:35.294Z,101460.37
2018-05-07T23:58:02.844Z,101456.98
